sensor_id;sensor_type;location;lat;lon;timestamp;P1;durP1;ratioP1;P2;durP2;ratioP2
11572;SDS011;5842;52.426;4.886;2022-09-17T00:00:42;11.63;;;2.17;;
11572;SDS011;5842;52.426;4.886;2022-09-17T00:03:10;10.07;;;1.67;;
11572;SDS011;5842;52.426;4.886;2022-09-17T00:05:37;16.17;;;2.37;;
11572;SDS011;5842;52.426;4.886;2022-09-17T00:08:04;10.93;;;1.87;;
11572;SDS011;5842;52.426;4.886;2022-09-17T00:10:32;6.47;;;1.33;;
11572;SDS011;5842;52.426;4.886;2022-09-17T00:13:05;7.63;;;1.70;;
11572;SDS011;5842;52.426;4.886;2022-09-17T00:15:38;8.83;;;1.87;;
11572;SDS011;5842;52.426;4.886;2022-09-17T00:18:05;10.40;;;2.20;;
11572;SDS011;5842;52.426;4.886;2022-09-17T00:20:36;12.60;;;2.03;;
11572;SDS011;5842;52.426;4.886;2022-09-17T00:23:04;8.60;;;2.20;;
11572;SDS011;5842;52.426;4.886;2022-09-17T00:25:32;9.50;;;1.90;;
11572;SDS011;5842;52.426;4.886;2022-09-17T00:27:59;12.60;;;2.30;;
11572;SDS011;5842;52.426;4.886;2022-09-17T00:30:28;9.97;;;1.80;;
11572;SDS011;5842;52.426;4.886;2022-09-17T00:32:56;9.53;;;2.00;;
11572;SDS011;5842;52.426;4.886;2022-09-17T00:35:23;9.03;;;2.10;;
11572;SDS011;5842;52.426;4.886;2022-09-17T00:37:50;5.57;;;1.73;;
11572;SDS011;5842;52.426;4.886;2022-09-17T00:40:17;5.10;;;1.50;;
11572;SDS011;5842;52.426;4.886;2022-09-17T00:42:45;14.00;;;1.90;;
11572;SDS011;5842;52.426;4.886;2022-09-17T00:45:13;12.23;;;2.00;;
11572;SDS011;5842;52.426;4.886;2022-09-17T00:47:42;9.20;;;2.03;;
11572;SDS011;5842;52.426;4.886;2022-09-17T00:50:14;7.97;;;1.60;;
11572;SDS011;5842;52.426;4.886;2022-09-17T00:52:47;11.03;;;1.70;;
11572;SDS011;5842;52.426;4.886;2022-09-17T00:55:24;7.97;;;1.50;;
11572;SDS011;5842;52.426;4.886;2022-09-17T00:57:55;7.20;;;2.30;;
11572;SDS011;5842;52.426;4.886;2022-09-17T01:00:27;6.03;;;1.60;;
11572;SDS011;5842;52.426;4.886;2022-09-17T01:02:57;8.53;;;1.73;;
11572;SDS011;5842;52.426;4.886;2022-09-17T01:05:27;8.67;;;1.60;;
11572;SDS011;5842;52.426;4.886;2022-09-17T01:08:04;10.17;;;2.10;;
11572;SDS011;5842;52.426;4.886;2022-09-17T01:10:46;7.53;;;1.97;;
11572;SDS011;5842;52.426;4.886;2022-09-17T01:13:27;7.93;;;1.87;;
11572;SDS011;5842;52.426;4.886;2022-09-17T01:16:04;7.77;;;2.00;;
11572;SDS011;5842;52.426;4.886;2022-09-17T01:18:40;7.57;;;1.90;;
11572;SDS011;5842;52.426;4.886;2022-09-17T01:29:56;14.52;;;2.60;;
11572;SDS011;5842;52.426;4.886;2022-09-17T01:32:38;11.43;;;2.33;;
11572;SDS011;5842;52.426;4.886;2022-09-17T06:07:24;4.80;;;1.50;;
11572;SDS011;5842;52.426;4.886;2022-09-17T06:09:52;7.43;;;2.13;;
11572;SDS011;5842;52.426;4.886;2022-09-17T06:12:19;5.47;;;1.47;;
11572;SDS011;5842;52.426;4.886;2022-09-17T06:14:46;6.30;;;1.20;;
11572;SDS011;5842;52.426;4.886;2022-09-17T06:17:13;5.50;;;1.37;;
11572;SDS011;5842;52.426;4.886;2022-09-17T06:19:41;2.73;;;1.10;;
11572;SDS011;5842;52.426;4.886;2022-09-17T06:22:10;8.13;;;1.88;;
11572;SDS011;5842;52.426;4.886;2022-09-17T06:24:37;6.23;;;1.77;;
11572;SDS011;5842;52.426;4.886;2022-09-17T06:27:04;7.40;;;1.40;;
11572;SDS011;5842;52.426;4.886;2022-09-17T06:29:31;6.67;;;1.57;;
11572;SDS011;5842;52.426;4.886;2022-09-17T06:31:58;5.33;;;1.50;;
11572;SDS011;5842;52.426;4.886;2022-09-17T06:34:26;5.27;;;1.30;;
11572;SDS011;5842;52.426;4.886;2022-09-17T06:36:54;8.63;;;1.80;;
11572;SDS011;5842;52.426;4.886;2022-09-17T06:39:22;8.23;;;1.63;;
11572;SDS011;5842;52.426;4.886;2022-09-17T06:41:49;7.60;;;1.80;;
11572;SDS011;5842;52.426;4.886;2022-09-17T06:44:16;4.33;;;1.43;;
11572;SDS011;5842;52.426;4.886;2022-09-17T06:46:44;6.33;;;1.47;;
11572;SDS011;5842;52.426;4.886;2022-09-17T06:49:15;7.93;;;1.50;;
11572;SDS011;5842;52.426;4.886;2022-09-17T06:51:42;9.17;;;1.40;;
11572;SDS011;5842;52.426;4.886;2022-09-17T06:54:09;5.10;;;1.30;;
11572;SDS011;5842;52.426;4.886;2022-09-17T06:56:40;3.57;;;1.10;;
11572;SDS011;5842;52.426;4.886;2022-09-17T06:59:07;2.80;;;0.80;;
11572;SDS011;5842;52.426;4.886;2022-09-17T07:01:35;3.10;;;1.10;;
11572;SDS011;5842;52.426;4.886;2022-09-17T07:04:02;5.13;;;1.13;;
11572;SDS011;5842;52.426;4.886;2022-09-17T07:06:29;3.60;;;1.00;;
11572;SDS011;5842;52.426;4.886;2022-09-17T07:08:56;3.43;;;1.13;;
11572;SDS011;5842;52.426;4.886;2022-09-17T07:11:24;3.70;;;1.00;;
11572;SDS011;5842;52.426;4.886;2022-09-17T07:13:53;2.40;;;0.90;;
11572;SDS011;5842;52.426;4.886;2022-09-17T07:16:20;2.27;;;0.80;;
11572;SDS011;5842;52.426;4.886;2022-09-17T07:18:48;4.57;;;1.20;;
11572;SDS011;5842;52.426;4.886;2022-09-17T08:03:13;1.40;;;1.00;;
11572;SDS011;5842;52.426;4.886;2022-09-17T08:05:41;5.73;;;1.40;;
11572;SDS011;5842;52.426;4.886;2022-09-17T08:08:08;6.93;;;1.60;;
11572;SDS011;5842;52.426;4.886;2022-09-17T08:10:35;4.90;;;1.47;;
11572;SDS011;5842;52.426;4.886;2022-09-17T08:13:02;6.40;;;1.90;;
11572;SDS011;5842;52.426;4.886;2022-09-17T08:15:29;4.57;;;1.90;;
11572;SDS011;5842;52.426;4.886;2022-09-17T08:17:59;5.30;;;1.50;;
11572;SDS011;5842;52.426;4.886;2022-09-17T08:20:28;5.00;;;1.33;;
11572;SDS011;5842;52.426;4.886;2022-09-17T08:22:58;3.30;;;1.30;;
11572;SDS011;5842;52.426;4.886;2022-09-17T08:25:26;5.70;;;1.57;;
11572;SDS011;5842;52.426;4.886;2022-09-17T08:27:53;4.23;;;1.30;;
11572;SDS011;5842;52.426;4.886;2022-09-17T08:30:21;4.47;;;1.70;;
11572;SDS011;5842;52.426;4.886;2022-09-17T08:32:49;5.50;;;1.70;;
11572;SDS011;5842;52.426;4.886;2022-09-17T08:35:16;4.33;;;1.50;;
11572;SDS011;5842;52.426;4.886;2022-09-17T08:37:44;5.87;;;1.70;;
11572;SDS011;5842;52.426;4.886;2022-09-17T08:40:14;6.57;;;1.80;;
11572;SDS011;5842;52.426;4.886;2022-09-17T08:42:50;5.13;;;1.90;;
11572;SDS011;5842;52.426;4.886;2022-09-17T08:45:21;5.83;;;2.50;;
11572;SDS011;5842;52.426;4.886;2022-09-17T08:47:59;8.87;;;2.23;;
11572;SDS011;5842;52.426;4.886;2022-09-17T08:50:31;5.27;;;1.50;;
11572;SDS011;5842;52.426;4.886;2022-09-17T08:53:10;7.50;;;1.57;;
11572;SDS011;5842;52.426;4.886;2022-09-17T08:55:45;4.70;;;1.30;;
11572;SDS011;5842;52.426;4.886;2022-09-17T08:58:25;2.80;;;1.10;;
11572;SDS011;5842;52.426;4.886;2022-09-17T09:01:17;4.47;;;1.70;;
11572;SDS011;5842;52.426;4.886;2022-09-17T09:11:30;5.77;;;1.60;;
11572;SDS011;5842;52.426;4.886;2022-09-17T09:13:59;4.40;;;1.47;;
11572;SDS011;5842;52.426;4.886;2022-09-17T09:16:31;3.20;;;1.27;;
11572;SDS011;5842;52.426;4.886;2022-09-17T09:19:04;4.70;;;1.17;;
11572;SDS011;5842;52.426;4.886;2022-09-17T09:21:45;4.67;;;1.80;;
11572;SDS011;5842;52.426;4.886;2022-09-17T09:24:18;4.83;;;1.50;;
11572;SDS011;5842;52.426;4.886;2022-09-17T09:26:52;4.67;;;1.30;;
11572;SDS011;5842;52.426;4.886;2022-09-17T09:29:21;5.23;;;1.10;;
11572;SDS011;5842;52.426;4.886;2022-09-17T09:32:07;5.30;;;1.80;;
11572;SDS011;5842;52.426;4.886;2022-09-17T09:34:43;5.00;;;1.73;;
11572;SDS011;5842;52.426;4.886;2022-09-17T09:37:14;6.53;;;1.53;;
11572;SDS011;5842;52.426;4.886;2022-09-17T09:39:47;3.53;;;1.37;;
11572;SDS011;5842;52.426;4.886;2022-09-17T09:42:18;4.90;;;1.20;;
11572;SDS011;5842;52.426;4.886;2022-09-17T09:44:55;6.40;;;1.30;;
11572;SDS011;5842;52.426;4.886;2022-09-17T09:47:38;5.73;;;1.30;;
11572;SDS011;5842;52.426;4.886;2022-09-17T09:50:19;4.00;;;1.40;;
11572;SDS011;5842;52.426;4.886;2022-09-17T09:53:00;10.13;;;1.93;;
11572;SDS011;5842;52.426;4.886;2022-09-17T09:55:40;9.50;;;1.80;;
11572;SDS011;5842;52.426;4.886;2022-09-17T09:58:20;8.43;;;2.50;;
11572;SDS011;5842;52.426;4.886;2022-09-17T10:00:56;8.40;;;1.90;;
11572;SDS011;5842;52.426;4.886;2022-09-17T10:03:25;5.80;;;1.60;;
11572;SDS011;5842;52.426;4.886;2022-09-17T10:05:56;6.00;;;1.37;;
11572;SDS011;5842;52.426;4.886;2022-09-17T10:08:25;7.20;;;1.83;;
11572;SDS011;5842;52.426;4.886;2022-09-17T10:10:55;5.47;;;1.50;;
11572;SDS011;5842;52.426;4.886;2022-09-17T10:13:25;5.93;;;1.70;;
11572;SDS011;5842;52.426;4.886;2022-09-17T10:15:53;7.27;;;1.57;;
11572;SDS011;5842;52.426;4.886;2022-09-17T10:18:21;6.40;;;1.60;;
11572;SDS011;5842;52.426;4.886;2022-09-17T10:20:53;9.27;;;1.60;;
11572;SDS011;5842;52.426;4.886;2022-09-17T10:23:22;7.43;;;1.50;;
11572;SDS011;5842;52.426;4.886;2022-09-17T10:25:51;7.90;;;1.83;;
11572;SDS011;5842;52.426;4.886;2022-09-17T10:28:32;8.50;;;1.90;;
11572;SDS011;5842;52.426;4.886;2022-09-17T10:31:04;13.37;;;2.13;;
11572;SDS011;5842;52.426;4.886;2022-09-17T10:33:35;8.73;;;1.90;;
11572;SDS011;5842;52.426;4.886;2022-09-17T10:36:05;6.83;;;1.97;;
11572;SDS011;5842;52.426;4.886;2022-09-17T10:38:35;8.33;;;1.80;;
11572;SDS011;5842;52.426;4.886;2022-09-17T10:41:13;7.10;;;1.50;;
11572;SDS011;5842;52.426;4.886;2022-09-17T10:43:44;5.47;;;1.60;;
11572;SDS011;5842;52.426;4.886;2022-09-17T10:46:13;6.90;;;1.87;;
11572;SDS011;5842;52.426;4.886;2022-09-17T10:48:43;6.10;;;1.60;;
11572;SDS011;5842;52.426;4.886;2022-09-17T10:51:21;4.30;;;1.40;;
11572;SDS011;5842;52.426;4.886;2022-09-17T10:54:03;8.53;;;1.90;;
11572;SDS011;5842;52.426;4.886;2022-09-17T10:56:43;7.37;;;1.93;;
11572;SDS011;5842;52.426;4.886;2022-09-17T10:59:21;7.40;;;1.60;;
11572;SDS011;5842;52.426;4.886;2022-09-17T11:02:37;8.90;;;1.60;;
11572;SDS011;5842;52.426;4.886;2022-09-17T11:05:39;5.57;;;1.67;;
11572;SDS011;5842;52.426;4.886;2022-09-17T11:08:16;8.30;;;2.10;;
11572;SDS011;5842;52.426;4.886;2022-09-17T11:10:52;8.93;;;2.07;;
11572;SDS011;5842;52.426;4.886;2022-09-17T11:13:29;9.20;;;1.87;;
11572;SDS011;5842;52.426;4.886;2022-09-17T11:19:00;9.80;;;1.97;;
11572;SDS011;5842;52.426;4.886;2022-09-17T11:21:40;9.50;;;1.93;;
11572;SDS011;5842;52.426;4.886;2022-09-17T11:27:15;8.20;;;1.93;;
11572;SDS011;5842;52.426;4.886;2022-09-17T11:29:59;9.70;;;1.93;;
11572;SDS011;5842;52.426;4.886;2022-09-17T11:32:37;3.90;;;1.50;;
11572;SDS011;5842;52.426;4.886;2022-09-17T11:35:17;5.00;;;1.50;;
11572;SDS011;5842;52.426;4.886;2022-09-17T11:37:47;5.97;;;1.77;;
11572;SDS011;5842;52.426;4.886;2022-09-17T11:40:20;5.47;;;1.73;;
11572;SDS011;5842;52.426;4.886;2022-09-17T11:42:52;5.50;;;1.50;;
11572;SDS011;5842;52.426;4.886;2022-09-17T11:45:23;8.03;;;2.10;;
11572;SDS011;5842;52.426;4.886;2022-09-17T11:47:57;8.70;;;1.90;;
11572;SDS011;5842;52.426;4.886;2022-09-17T11:50:31;9.63;;;1.60;;
11572;SDS011;5842;52.426;4.886;2022-09-17T11:53:03;7.57;;;1.80;;
11572;SDS011;5842;52.426;4.886;2022-09-17T11:55:46;7.30;;;1.60;;
11572;SDS011;5842;52.426;4.886;2022-09-17T11:58:20;8.70;;;1.97;;
11572;SDS011;5842;52.426;4.886;2022-09-17T12:00:53;5.03;;;1.63;;
11572;SDS011;5842;52.426;4.886;2022-09-17T12:03:29;4.53;;;1.50;;
11572;SDS011;5842;52.426;4.886;2022-09-17T12:06:00;6.47;;;1.70;;
11572;SDS011;5842;52.426;4.886;2022-09-17T12:08:33;5.17;;;1.80;;
11572;SDS011;5842;52.426;4.886;2022-09-17T12:11:09;10.17;;;2.07;;
11572;SDS011;5842;52.426;4.886;2022-09-17T12:13:41;4.87;;;1.53;;
11572;SDS011;5842;52.426;4.886;2022-09-17T12:16:15;8.47;;;1.90;;
11572;SDS011;5842;52.426;4.886;2022-09-17T12:18:52;10.20;;;2.17;;
11572;SDS011;5842;52.426;4.886;2022-09-17T12:21:28;9.27;;;2.20;;
11572;SDS011;5842;52.426;4.886;2022-09-17T12:24:02;7.17;;;1.60;;
11572;SDS011;5842;52.426;4.886;2022-09-17T12:26:48;8.27;;;1.90;;
11572;SDS011;5842;52.426;4.886;2022-09-17T12:29:30;6.13;;;1.63;;
11572;SDS011;5842;52.426;4.886;2022-09-17T12:32:16;7.90;;;1.80;;
11572;SDS011;5842;52.426;4.886;2022-09-17T12:34:58;6.20;;;1.50;;
11572;SDS011;5842;52.426;4.886;2022-09-17T12:37:32;4.53;;;1.57;;
11572;SDS011;5842;52.426;4.886;2022-09-17T12:40:09;6.40;;;1.50;;
11572;SDS011;5842;52.426;4.886;2022-09-17T12:42:59;10.03;;;2.07;;
11572;SDS011;5842;52.426;4.886;2022-09-17T12:45:52;7.93;;;1.97;;
11572;SDS011;5842;52.426;4.886;2022-09-17T12:51:35;8.97;;;1.53;;
11572;SDS011;5842;52.426;4.886;2022-09-17T12:54:16;9.10;;;1.83;;
11572;SDS011;5842;52.426;4.886;2022-09-17T12:57:06;6.87;;;1.60;;
11572;SDS011;5842;52.426;4.886;2022-09-17T12:59:41;9.67;;;2.10;;
11572;SDS011;5842;52.426;4.886;2022-09-17T13:02:16;8.27;;;1.80;;
11572;SDS011;5842;52.426;4.886;2022-09-17T13:04:55;9.80;;;2.23;;
11572;SDS011;5842;52.426;4.886;2022-09-17T13:07:43;8.67;;;1.83;;
11572;SDS011;5842;52.426;4.886;2022-09-17T13:10:37;9.23;;;1.90;;
11572;SDS011;5842;52.426;4.886;2022-09-17T13:13:21;5.80;;;2.00;;
11572;SDS011;5842;52.426;4.886;2022-09-17T13:15:57;7.10;;;2.03;;
11572;SDS011;5842;52.426;4.886;2022-09-17T13:18:33;7.63;;;2.00;;
11572;SDS011;5842;52.426;4.886;2022-09-17T13:21:05;9.67;;;1.93;;
11572;SDS011;5842;52.426;4.886;2022-09-17T13:23:40;6.93;;;1.40;;
11572;SDS011;5842;52.426;4.886;2022-09-17T13:26:09;7.57;;;1.93;;
11572;SDS011;5842;52.426;4.886;2022-09-17T13:28:42;9.70;;;1.87;;
11572;SDS011;5842;52.426;4.886;2022-09-17T13:31:10;7.57;;;1.90;;
11572;SDS011;5842;52.426;4.886;2022-09-17T13:33:51;7.03;;;1.70;;
11572;SDS011;5842;52.426;4.886;2022-09-17T13:36:36;8.03;;;1.97;;
11572;SDS011;5842;52.426;4.886;2022-09-17T13:39:11;7.87;;;1.80;;
11572;SDS011;5842;52.426;4.886;2022-09-17T13:42:07;9.60;;;1.93;;
11572;SDS011;5842;52.426;4.886;2022-09-17T13:44:40;7.43;;;1.83;;
11572;SDS011;5842;52.426;4.886;2022-09-17T13:47:11;10.40;;;1.97;;
11572;SDS011;5842;52.426;4.886;2022-09-17T13:49:45;9.40;;;2.07;;
11572;SDS011;5842;52.426;4.886;2022-09-17T13:52:27;7.83;;;2.13;;
11572;SDS011;5842;52.426;4.886;2022-09-17T13:55:07;10.47;;;2.17;;
11572;SDS011;5842;52.426;4.886;2022-09-17T13:57:46;9.97;;;2.70;;
11572;SDS011;5842;52.426;4.886;2022-09-17T14:09:43;7.17;;;1.77;;
11572;SDS011;5842;52.426;4.886;2022-09-17T14:15:36;8.10;;;1.67;;
11572;SDS011;5842;52.426;4.886;2022-09-17T14:21:30;9.07;;;2.00;;
11572;SDS011;5842;52.426;4.886;2022-09-17T14:23:59;10.83;;;2.37;;
11572;SDS011;5842;52.426;4.886;2022-09-17T14:29:44;8.07;;;2.30;;
11572;SDS011;5842;52.426;4.886;2022-09-17T14:32:29;9.57;;;2.10;;
11572;SDS011;5842;52.426;4.886;2022-09-17T14:35:01;7.03;;;2.20;;
11572;SDS011;5842;52.426;4.886;2022-09-17T14:37:39;8.60;;;2.13;;
11572;SDS011;5842;52.426;4.886;2022-09-17T14:40:09;10.17;;;2.10;;
11572;SDS011;5842;52.426;4.886;2022-09-17T14:42:40;10.03;;;2.20;;
11572;SDS011;5842;52.426;4.886;2022-09-17T14:45:13;7.90;;;2.20;;
11572;SDS011;5842;52.426;4.886;2022-09-17T14:47:43;12.17;;;2.10;;
11572;SDS011;5842;52.426;4.886;2022-09-17T14:50:20;9.50;;;1.97;;
11572;SDS011;5842;52.426;4.886;2022-09-17T14:52:50;6.73;;;1.90;;
11572;SDS011;5842;52.426;4.886;2022-09-17T14:55:19;6.37;;;1.90;;
11572;SDS011;5842;52.426;4.886;2022-09-17T14:57:48;6.60;;;1.90;;
11572;SDS011;5842;52.426;4.886;2022-09-17T15:00:20;9.87;;;2.27;;
11572;SDS011;5842;52.426;4.886;2022-09-17T15:02:50;7.60;;;1.60;;
11572;SDS011;5842;52.426;4.886;2022-09-17T15:05:23;9.77;;;2.10;;
11572;SDS011;5842;52.426;4.886;2022-09-17T15:08:03;12.20;;;2.00;;
11572;SDS011;5842;52.426;4.886;2022-09-17T15:10:44;8.03;;;1.70;;
11572;SDS011;5842;52.426;4.886;2022-09-17T15:13:16;9.17;;;1.90;;
11572;SDS011;5842;52.426;4.886;2022-09-17T15:15:51;7.77;;;2.10;;
11572;SDS011;5842;52.426;4.886;2022-09-17T15:18:21;8.30;;;1.97;;
11572;SDS011;5842;52.426;4.886;2022-09-17T15:20:58;6.57;;;1.90;;
11572;SDS011;5842;52.426;4.886;2022-09-17T15:23:28;8.47;;;1.70;;
11572;SDS011;5842;52.426;4.886;2022-09-17T15:25:59;7.87;;;1.53;;
11572;SDS011;5842;52.426;4.886;2022-09-17T15:28:28;10.73;;;1.90;;
11572;SDS011;5842;52.426;4.886;2022-09-17T15:31:00;7.87;;;1.63;;
11572;SDS011;5842;52.426;4.886;2022-09-17T15:33:29;6.07;;;1.53;;
11572;SDS011;5842;52.426;4.886;2022-09-17T15:35:58;8.30;;;1.50;;
11572;SDS011;5842;52.426;4.886;2022-09-17T15:38:32;7.20;;;1.77;;
11572;SDS011;5842;52.426;4.886;2022-09-17T15:41:11;6.40;;;2.00;;
11572;SDS011;5842;52.426;4.886;2022-09-17T15:43:50;9.20;;;1.60;;
11572;SDS011;5842;52.426;4.886;2022-09-17T15:46:23;6.97;;;1.80;;
11572;SDS011;5842;52.426;4.886;2022-09-17T15:48:52;7.53;;;1.70;;
11572;SDS011;5842;52.426;4.886;2022-09-17T15:51:21;8.50;;;1.60;;
11572;SDS011;5842;52.426;4.886;2022-09-17T15:53:51;7.10;;;1.70;;
11572;SDS011;5842;52.426;4.886;2022-09-17T15:56:21;6.10;;;2.07;;
11572;SDS011;5842;52.426;4.886;2022-09-17T15:58:57;6.87;;;2.17;;
11572;SDS011;5842;52.426;4.886;2022-09-17T16:04:19;4.93;;;1.63;;
11572;SDS011;5842;52.426;4.886;2022-09-17T16:09:59;3.73;;;1.30;;
11572;SDS011;5842;52.426;4.886;2022-09-17T16:12:27;6.13;;;1.50;;
11572;SDS011;5842;52.426;4.886;2022-09-17T16:14:55;4.10;;;1.30;;
11572;SDS011;5842;52.426;4.886;2022-09-17T16:17:28;4.73;;;1.50;;
11572;SDS011;5842;52.426;4.886;2022-09-17T16:20:07;4.63;;;1.37;;
11572;SDS011;5842;52.426;4.886;2022-09-17T16:22:40;5.40;;;1.47;;
11572;SDS011;5842;52.426;4.886;2022-09-17T16:25:08;4.03;;;1.30;;
11572;SDS011;5842;52.426;4.886;2022-09-17T16:27:38;3.53;;;1.23;;
11572;SDS011;5842;52.426;4.886;2022-09-17T16:30:12;5.43;;;1.30;;
11572;SDS011;5842;52.426;4.886;2022-09-17T16:32:43;5.10;;;1.20;;
11572;SDS011;5842;52.426;4.886;2022-09-17T16:35:11;4.37;;;1.13;;
11572;SDS011;5842;52.426;4.886;2022-09-17T16:37:39;7.83;;;1.97;;
11572;SDS011;5842;52.426;4.886;2022-09-17T16:40:07;4.63;;;1.20;;
11572;SDS011;5842;52.426;4.886;2022-09-17T16:42:36;3.33;;;1.10;;
11572;SDS011;5842;52.426;4.886;2022-09-17T16:45:04;7.23;;;1.40;;
11572;SDS011;5842;52.426;4.886;2022-09-17T16:47:34;5.67;;;1.03;;
11572;SDS011;5842;52.426;4.886;2022-09-17T16:50:06;5.33;;;1.40;;
11572;SDS011;5842;52.426;4.886;2022-09-17T16:52:35;6.40;;;1.40;;
11572;SDS011;5842;52.426;4.886;2022-09-17T16:55:03;8.00;;;1.73;;
11572;SDS011;5842;52.426;4.886;2022-09-17T16:57:30;3.73;;;1.50;;
11572;SDS011;5842;52.426;4.886;2022-09-17T16:59:58;4.00;;;1.50;;
11572;SDS011;5842;52.426;4.886;2022-09-17T17:02:26;8.47;;;1.60;;
11572;SDS011;5842;52.426;4.886;2022-09-17T17:04:53;6.83;;;1.53;;
11572;SDS011;5842;52.426;4.886;2022-09-17T17:07:21;5.20;;;1.53;;
11572;SDS011;5842;52.426;4.886;2022-09-17T17:09:54;3.30;;;1.33;;
11572;SDS011;5842;52.426;4.886;2022-09-17T17:12:23;4.80;;;1.20;;
11572;SDS011;5842;52.426;4.886;2022-09-17T17:14:51;4.97;;;1.47;;
11572;SDS011;5842;52.426;4.886;2022-09-17T17:17:18;3.43;;;0.90;;
11572;SDS011;5842;52.426;4.886;2022-09-17T17:19:46;1.83;;;0.87;;
11572;SDS011;5842;52.426;4.886;2022-09-17T17:22:13;3.97;;;0.90;;
11572;SDS011;5842;52.426;4.886;2022-09-17T17:24:45;1.97;;;1.10;;
11572;SDS011;5842;52.426;4.886;2022-09-17T17:27:12;3.07;;;1.20;;
11572;SDS011;5842;52.426;4.886;2022-09-17T17:29:42;3.23;;;1.50;;
11572;SDS011;5842;52.426;4.886;2022-09-17T17:32:09;2.50;;;1.40;;
11572;SDS011;5842;52.426;4.886;2022-09-17T17:34:36;4.63;;;1.57;;
11572;SDS011;5842;52.426;4.886;2022-09-17T17:37:03;6.43;;;1.63;;
11572;SDS011;5842;52.426;4.886;2022-09-17T17:39:31;4.70;;;1.50;;
11572;SDS011;5842;52.426;4.886;2022-09-17T17:41:59;6.30;;;1.60;;
11572;SDS011;5842;52.426;4.886;2022-09-17T17:44:27;4.30;;;1.77;;
11572;SDS011;5842;52.426;4.886;2022-09-17T17:46:54;5.67;;;1.57;;
11572;SDS011;5842;52.426;4.886;2022-09-17T17:49:21;7.57;;;1.80;;
11572;SDS011;5842;52.426;4.886;2022-09-17T17:51:54;8.90;;;2.37;;
11572;SDS011;5842;52.426;4.886;2022-09-17T17:54:21;6.37;;;2.10;;
11572;SDS011;5842;52.426;4.886;2022-09-17T17:57:02;9.83;;;2.27;;
11572;SDS011;5842;52.426;4.886;2022-09-17T17:59:29;7.27;;;1.87;;
11572;SDS011;5842;52.426;4.886;2022-09-17T18:01:56;9.53;;;2.10;;
11572;SDS011;5842;52.426;4.886;2022-09-17T18:04:24;7.20;;;1.77;;
11572;SDS011;5842;52.426;4.886;2022-09-17T18:06:52;7.27;;;2.10;;
11572;SDS011;5842;52.426;4.886;2022-09-17T18:09:19;6.60;;;1.83;;
11572;SDS011;5842;52.426;4.886;2022-09-17T18:11:46;10.93;;;1.83;;
11572;SDS011;5842;52.426;4.886;2022-09-17T18:14:14;7.33;;;1.97;;
11572;SDS011;5842;52.426;4.886;2022-09-17T18:16:42;8.77;;;2.10;;
11572;SDS011;5842;52.426;4.886;2022-09-17T18:19:09;9.43;;;2.20;;
11572;SDS011;5842;52.426;4.886;2022-09-17T18:21:37;11.87;;;2.47;;
11572;SDS011;5842;52.426;4.886;2022-09-17T18:24:04;7.37;;;2.20;;
11572;SDS011;5842;52.426;4.886;2022-09-17T18:26:31;9.43;;;2.20;;
11572;SDS011;5842;52.426;4.886;2022-09-17T18:28:59;7.50;;;2.10;;
11572;SDS011;5842;52.426;4.886;2022-09-17T18:31:29;7.47;;;2.13;;
11572;SDS011;5842;52.426;4.886;2022-09-17T18:33:58;7.87;;;1.97;;
11572;SDS011;5842;52.426;4.886;2022-09-17T18:36:27;8.23;;;2.20;;
11572;SDS011;5842;52.426;4.886;2022-09-17T18:38:57;10.73;;;2.30;;
11572;SDS011;5842;52.426;4.886;2022-09-17T18:41:26;7.60;;;2.13;;
11572;SDS011;5842;52.426;4.886;2022-09-17T18:43:54;5.30;;;1.63;;
11572;SDS011;5842;52.426;4.886;2022-09-17T18:46:23;8.50;;;2.03;;
11572;SDS011;5842;52.426;4.886;2022-09-17T18:48:53;8.37;;;2.00;;
11572;SDS011;5842;52.426;4.886;2022-09-17T18:51:20;5.33;;;1.90;;
11572;SDS011;5842;52.426;4.886;2022-09-17T18:53:56;7.70;;;1.60;;
11572;SDS011;5842;52.426;4.886;2022-09-17T18:56:29;6.97;;;1.60;;
11572;SDS011;5842;52.426;4.886;2022-09-17T18:58:58;10.13;;;1.87;;
11572;SDS011;5842;52.426;4.886;2022-09-17T19:01:26;5.93;;;1.60;;
11572;SDS011;5842;52.426;4.886;2022-09-17T19:03:56;7.37;;;1.83;;
11572;SDS011;5842;52.426;4.886;2022-09-17T19:06:24;6.97;;;1.60;;
11572;SDS011;5842;52.426;4.886;2022-09-17T19:08:52;7.77;;;1.90;;
11572;SDS011;5842;52.426;4.886;2022-09-17T19:11:24;7.27;;;1.90;;
11572;SDS011;5842;52.426;4.886;2022-09-17T19:13:51;5.70;;;1.40;;
11572;SDS011;5842;52.426;4.886;2022-09-17T19:16:18;9.70;;;1.70;;
11572;SDS011;5842;52.426;4.886;2022-09-17T19:18:45;5.60;;;1.43;;
11572;SDS011;5842;52.426;4.886;2022-09-17T19:21:17;8.77;;;1.50;;
11572;SDS011;5842;52.426;4.886;2022-09-17T19:23:46;8.07;;;1.87;;
11572;SDS011;5842;52.426;4.886;2022-09-17T19:26:15;7.47;;;2.03;;
11572;SDS011;5842;52.426;4.886;2022-09-17T19:28:44;5.80;;;1.90;;
11572;SDS011;5842;52.426;4.886;2022-09-17T19:31:12;8.73;;;2.00;;
11572;SDS011;5842;52.426;4.886;2022-09-17T19:33:41;6.73;;;1.60;;
11572;SDS011;5842;52.426;4.886;2022-09-17T19:36:09;8.23;;;2.20;;
11572;SDS011;5842;52.426;4.886;2022-09-17T19:38:44;5.57;;;1.77;;
11572;SDS011;5842;52.426;4.886;2022-09-17T19:41:13;8.13;;;1.93;;
11572;SDS011;5842;52.426;4.886;2022-09-17T19:43:42;7.97;;;2.03;;
11572;SDS011;5842;52.426;4.886;2022-09-17T19:46:10;8.27;;;2.03;;
11572;SDS011;5842;52.426;4.886;2022-09-17T19:48:42;4.33;;;1.77;;
11572;SDS011;5842;52.426;4.886;2022-09-17T19:51:10;5.67;;;1.70;;
11572;SDS011;5842;52.426;4.886;2022-09-17T19:53:38;6.10;;;1.60;;
11572;SDS011;5842;52.426;4.886;2022-09-17T19:56:08;5.90;;;1.80;;
11572;SDS011;5842;52.426;4.886;2022-09-17T19:58:39;5.10;;;1.77;;
11572;SDS011;5842;52.426;4.886;2022-09-17T20:01:07;11.90;;;1.80;;
11572;SDS011;5842;52.426;4.886;2022-09-17T20:03:34;6.27;;;1.87;;
11572;SDS011;5842;52.426;4.886;2022-09-17T20:06:04;5.83;;;1.70;;
11572;SDS011;5842;52.426;4.886;2022-09-17T20:08:33;4.57;;;1.73;;
11572;SDS011;5842;52.426;4.886;2022-09-17T20:11:03;6.40;;;1.70;;
11572;SDS011;5842;52.426;4.886;2022-09-17T20:13:33;7.73;;;2.03;;
11572;SDS011;5842;52.426;4.886;2022-09-17T20:16:04;6.23;;;1.80;;
11572;SDS011;5842;52.426;4.886;2022-09-17T20:18:33;4.80;;;1.60;;
11572;SDS011;5842;52.426;4.886;2022-09-17T20:21:04;6.70;;;2.00;;
11572;SDS011;5842;52.426;4.886;2022-09-17T20:23:32;9.80;;;1.90;;
11572;SDS011;5842;52.426;4.886;2022-09-17T20:26:00;6.82;;;2.15;;
11572;SDS011;5842;52.426;4.886;2022-09-17T20:28:27;5.50;;;1.70;;
11572;SDS011;5842;52.426;4.886;2022-09-17T20:31:02;7.47;;;2.47;;
11572;SDS011;5842;52.426;4.886;2022-09-17T20:33:31;6.13;;;2.13;;
11572;SDS011;5842;52.426;4.886;2022-09-17T20:35:59;7.87;;;2.13;;
11572;SDS011;5842;52.426;4.886;2022-09-17T20:38:27;8.33;;;2.50;;
11572;SDS011;5842;52.426;4.886;2022-09-17T20:40:59;7.47;;;1.97;;
11572;SDS011;5842;52.426;4.886;2022-09-17T20:43:27;7.07;;;2.17;;
11572;SDS011;5842;52.426;4.886;2022-09-17T20:45:54;10.60;;;2.00;;
11572;SDS011;5842;52.426;4.886;2022-09-17T20:48:23;6.07;;;1.80;;
11572;SDS011;5842;52.426;4.886;2022-09-17T20:50:56;7.50;;;1.87;;
11572;SDS011;5842;52.426;4.886;2022-09-17T20:53:29;8.50;;;2.10;;
11572;SDS011;5842;52.426;4.886;2022-09-17T20:56:04;11.93;;;2.57;;
11572;SDS011;5842;52.426;4.886;2022-09-17T20:58:33;8.07;;;2.10;;
11572;SDS011;5842;52.426;4.886;2022-09-17T21:01:04;12.20;;;2.87;;
11572;SDS011;5842;52.426;4.886;2022-09-17T21:03:35;4.37;;;1.70;;
11572;SDS011;5842;52.426;4.886;2022-09-17T21:06:04;8.87;;;2.20;;
11572;SDS011;5842;52.426;4.886;2022-09-17T21:08:31;8.90;;;2.10;;
11572;SDS011;5842;52.426;4.886;2022-09-17T21:11:02;8.43;;;1.80;;
11572;SDS011;5842;52.426;4.886;2022-09-17T21:13:30;6.33;;;1.80;;
11572;SDS011;5842;52.426;4.886;2022-09-17T21:15:57;7.23;;;2.17;;
11572;SDS011;5842;52.426;4.886;2022-09-17T21:18:25;7.43;;;1.67;;
11572;SDS011;5842;52.426;4.886;2022-09-17T21:20:54;6.10;;;1.80;;
11572;SDS011;5842;52.426;4.886;2022-09-17T21:23:22;6.27;;;1.77;;
11572;SDS011;5842;52.426;4.886;2022-09-17T21:25:50;5.07;;;1.57;;
11572;SDS011;5842;52.426;4.886;2022-09-17T21:28:18;3.60;;;1.60;;
11572;SDS011;5842;52.426;4.886;2022-09-17T21:30:46;3.80;;;1.43;;
11572;SDS011;5842;52.426;4.886;2022-09-17T21:33:14;4.43;;;1.30;;